sensor_id;sensor_type;location;lat;lon;timestamp;pressure;altitude;pressure_sealevel;temperature;humidity
19797;BME280;10058;57.654;12.044;2023-03-03T00:00:41;101586.44;;;0.47;100.00
19797;BME280;10058;57.654;12.044;2023-03-03T00:03:08;101583.38;;;0.31;100.00
19797;BME280;10058;57.654;12.044;2023-03-03T00:05:35;101577.53;;;0.23;100.00
19797;BME280;10058;57.654;12.044;2023-03-03T00:08:01;101580.13;;;0.23;100.00
19797;BME280;10058;57.654;12.044;2023-03-03T00:10:27;101577.91;;;0.28;100.00
19797;BME280;10058;57.654;12.044;2023-03-03T00:12:52;101576.09;;;0.27;100.00
19797;BME280;10058;57.654;12.044;2023-03-03T00:15:23;101581.31;;;0.27;100.00
19797;BME280;10058;57.654;12.044;2023-03-03T00:17:49;101570.66;;;0.24;100.00
19797;BME280;10058;57.654;12.044;2023-03-03T00:20:37;101564.91;;;0.28;100.00
19797;BME280;10058;57.654;12.044;2023-03-03T00:25:58;101566.53;;;0.16;100.00
19797;BME280;10058;57.654;12.044;2023-03-03T00:28:35;101571.19;;;0.20;100.00
19797;BME280;10058;57.654;12.044;2023-03-03T00:31:14;101573.50;;;0.27;100.00
19797;BME280;10058;57.654;12.044;2023-03-03T00:33:52;101575.81;;;0.34;100.00
19797;BME280;10058;57.654;12.044;2023-03-03T00:36:28;101573.56;;;0.17;100.00
19797;BME280;10058;57.654;12.044;2023-03-03T00:39:09;101579.66;;;0.17;100.00
19797;BME280;10058;57.654;12.044;2023-03-03T00:41:35;101573.25;;;0.24;100.00
19797;BME280;10058;57.654;12.044;2023-03-03T00:45:04;101569.34;;;0.19;100.00
19797;BME280;10058;57.654;12.044;2023-03-03T00:47:17;101571.59;;;0.14;100.00
19797;BME280;10058;57.654;12.044;2023-03-03T00:49:47;101578.38;;;0.12;100.00
19797;BME280;10058;57.654;12.044;2023-03-03T00:52:17;101582.44;;;-0.02;100.00
19797;BME280;10058;57.654;12.044;2023-03-03T00:54:43;101581.63;;;0.10;100.00
19797;BME280;10058;57.654;12.044;2023-03-03T00:57:09;101584.22;;;0.10;100.00
19797;BME280;10058;57.654;12.044;2023-03-03T00:59:36;101597.22;;;0.10;100.00
19797;BME280;10058;57.654;12.044;2023-03-03T01:02:02;101596.13;;;0.18;100.00
19797;BME280;10058;57.654;12.044;2023-03-03T01:04:27;101597.94;;;0.19;100.00
19797;BME280;10058;57.654;12.044;2023-03-03T01:06:52;101595.91;;;0.15;100.00
19797;BME280;10058;57.654;12.044;2023-03-03T01:09:17;101602.72;;;-0.08;100.00
19797;BME280;10058;57.654;12.044;2023-03-03T01:11:43;101606.44;;;0.06;100.00
19797;BME280;10058;57.654;12.044;2023-03-03T01:14:08;101602.66;;;0.13;100.00
19797;BME280;10058;57.654;12.044;2023-03-03T01:16:33;101599.03;;;0.11;100.00
19797;BME280;10058;57.654;12.044;2023-03-03T01:18:59;101598.78;;;0.08;100.00
19797;BME280;10058;57.654;12.044;2023-03-03T01:21:24;101586.03;;;0.00;100.00
19797;BME280;10058;57.654;12.044;2023-03-03T01:23:49;101588.81;;;-0.08;100.00
19797;BME280;10058;57.654;12.044;2023-03-03T01:26:15;101585.81;;;-0.03;100.00
19797;BME280;10058;57.654;12.044;2023-03-03T01:28:40;101578.41;;;-0.08;100.00
19797;BME280;10058;57.654;12.044;2023-03-03T01:31:06;101574.66;;;-0.12;100.00
19797;BME280;10058;57.654;12.044;2023-03-03T01:33:33;101560.63;;;-0.14;100.00
19797;BME280;10058;57.654;12.044;2023-03-03T01:35:58;101572.69;;;-0.04;100.00
19797;BME280;10058;57.654;12.044;2023-03-03T01:38:24;101580.38;;;-0.06;100.00
19797;BME280;10058;57.654;12.044;2023-03-03T01:40:54;101595.47;;;-0.22;100.00
19797;BME280;10058;57.654;12.044;2023-03-03T01:43:19;101601.44;;;-0.23;100.00
19797;BME280;10058;57.654;12.044;2023-03-03T01:50:55;101581.81;;;-0.09;100.00
19797;BME280;10058;57.654;12.044;2023-03-03T01:53:25;101582.72;;;-0.09;100.00
19797;BME280;10058;57.654;12.044;2023-03-03T01:55:53;101570.09;;;-0.04;100.00
19797;BME280;10058;57.654;12.044;2023-03-03T01:58:31;101570.22;;;-0.03;100.00
19797;BME280;10058;57.654;12.044;2023-03-03T02:01:01;101565.25;;;0.00;100.00
19797;BME280;10058;57.654;12.044;2023-03-03T02:03:28;101570.38;;;-0.11;100.00
19797;BME280;10058;57.654;12.044;2023-03-03T02:05:58;101569.47;;;-0.12;100.00
19797;BME280;10058;57.654;12.044;2023-03-03T02:08:27;101562.78;;;0.02;100.00
19797;BME280;10058;57.654;12.044;2023-03-03T02:10:56;101578.25;;;0.11;100.00
19797;BME280;10058;57.654;12.044;2023-03-03T02:13:22;101570.97;;;0.07;100.00
19797;BME280;10058;57.654;12.044;2023-03-03T02:15:47;101558.28;;;-0.01;100.00
19797;BME280;10058;57.654;12.044;2023-03-03T02:18:14;101566.84;;;-0.02;100.00
19797;BME280;10058;57.654;12.044;2023-03-03T02:23:22;101572.78;;;0.08;100.00
19797;BME280;10058;57.654;12.044;2023-03-03T02:28:24;101570.44;;;0.00;100.00
19797;BME280;10058;57.654;12.044;2023-03-03T02:30:53;101579.84;;;-0.02;100.00
19797;BME280;10058;57.654;12.044;2023-03-03T02:33:19;101579.41;;;0.04;100.00
19797;BME280;10058;57.654;12.044;2023-03-03T02:35:44;101580.84;;;0.00;100.00
19797;BME280;10058;57.654;12.044;2023-03-03T02:38:46;101580.47;;;0.06;100.00
19797;BME280;10058;57.654;12.044;2023-03-03T02:41:37;101584.34;;;0.11;100.00
19797;BME280;10058;57.654;12.044;2023-03-03T02:46:37;101575.16;;;-0.06;100.00
19797;BME280;10058;57.654;12.044;2023-03-03T02:49:04;101570.72;;;0.04;100.00
19797;BME280;10058;57.654;12.044;2023-03-03T02:51:29;101568.91;;;0.03;100.00
19797;BME280;10058;57.654;12.044;2023-03-03T02:53:55;101564.72;;;0.05;100.00
19797;BME280;10058;57.654;12.044;2023-03-03T02:56:20;101564.38;;;0.00;100.00
19797;BME280;10058;57.654;12.044;2023-03-03T02:58:46;101566.28;;;0.13;100.00
19797;BME280;10058;57.654;12.044;2023-03-03T03:01:11;101563.88;;;0.26;100.00
19797;BME280;10058;57.654;12.044;2023-03-03T03:03:36;101565.72;;;0.27;100.00
19797;BME280;10058;57.654;12.044;2023-03-03T03:06:02;101561.34;;;0.16;100.00
19797;BME280;10058;57.654;12.044;2023-03-03T03:08:27;101551.59;;;0.13;100.00
19797;BME280;10058;57.654;12.044;2023-03-03T03:10:53;101555.63;;;0.10;100.00
19797;BME280;10058;57.654;12.044;2023-03-03T03:13:18;101567.06;;;0.12;100.00
19797;BME280;10058;57.654;12.044;2023-03-03T03:15:46;101565.19;;;0.21;100.00
19797;BME280;10058;57.654;12.044;2023-03-03T03:18:12;101565.44;;;0.24;100.00
19797;BME280;10058;57.654;12.044;2023-03-03T03:20:38;101559.25;;;0.12;100.00
19797;BME280;10058;57.654;12.044;2023-03-03T03:23:04;101551.75;;;0.05;100.00
19797;BME280;10058;57.654;12.044;2023-03-03T03:25:30;101557.69;;;0.14;100.00
19797;BME280;10058;57.654;12.044;2023-03-03T03:27:55;101564.47;;;0.12;100.00
19797;BME280;10058;57.654;12.044;2023-03-03T03:30:20;101554.06;;;0.12;100.00
19797;BME280;10058;57.654;12.044;2023-03-03T03:32:46;101545.44;;;0.23;100.00
19797;BME280;10058;57.654;12.044;2023-03-03T03:35:11;101537.63;;;0.23;100.00
19797;BME280;10058;57.654;12.044;2023-03-03T03:37:38;101539.63;;;0.15;100.00
19797;BME280;10058;57.654;12.044;2023-03-03T03:40:04;101537.19;;;0.07;100.00
19797;BME280;10058;57.654;12.044;2023-03-03T03:42:29;101526.78;;;0.07;100.00
19797;BME280;10058;57.654;12.044;2023-03-03T03:44:54;101552.50;;;0.14;100.00
19797;BME280;10058;57.654;12.044;2023-03-03T03:47:20;101538.88;;;0.06;100.00
19797;BME280;10058;57.654;12.044;2023-03-03T03:49:45;101542.56;;;-0.02;100.00
19797;BME280;10058;57.654;12.044;2023-03-03T03:52:10;101533.09;;;-0.12;100.00
19797;BME280;10058;57.654;12.044;2023-03-03T03:54:35;101529.69;;;-0.11;100.00
19797;BME280;10058;57.654;12.044;2023-03-03T03:57:01;101533.34;;;-0.09;100.00
19797;BME280;10058;57.654;12.044;2023-03-03T03:59:26;101533.59;;;-0.06;100.00
19797;BME280;10058;57.654;12.044;2023-03-03T04:01:51;101533.38;;;-0.29;100.00
19797;BME280;10058;57.654;12.044;2023-03-03T04:04:17;101532.09;;;-0.34;100.00
19797;BME280;10058;57.654;12.044;2023-03-03T04:06:42;101526.88;;;-0.24;100.00
19797;BME280;10058;57.654;12.044;2023-03-03T04:09:07;101534.19;;;0.02;100.00
19797;BME280;10058;57.654;12.044;2023-03-03T04:11:32;101518.00;;;-0.06;100.00
19797;BME280;10058;57.654;12.044;2023-03-03T04:13:58;101527.09;;;-0.11;100.00
19797;BME280;10058;57.654;12.044;2023-03-03T04:16:23;101536.63;;;-0.21;100.00
19797;BME280;10058;57.654;12.044;2023-03-03T04:18:48;101537.28;;;-0.24;100.00
19797;BME280;10058;57.654;12.044;2023-03-03T04:21:14;101528.59;;;-0.35;100.00
19797;BME280;10058;57.654;12.044;2023-03-03T04:23:40;101535.25;;;-0.48;100.00
19797;BME280;10058;57.654;12.044;2023-03-03T04:26:06;101534.47;;;-0.37;100.00
19797;BME280;10058;57.654;12.044;2023-03-03T04:28:32;101530.53;;;-0.32;100.00
19797;BME280;10058;57.654;12.044;2023-03-03T04:30:57;101531.09;;;-0.36;100.00
19797;BME280;10058;57.654;12.044;2023-03-03T04:33:23;101523.38;;;-0.35;100.00
19797;BME280;10058;57.654;12.044;2023-03-03T04:35:48;101527.72;;;-0.45;100.00
19797;BME280;10058;57.654;12.044;2023-03-03T04:38:14;101527.44;;;-0.38;100.00
19797;BME280;10058;57.654;12.044;2023-03-03T04:40:40;101525.88;;;-0.36;100.00
19797;BME280;10058;57.654;12.044;2023-03-03T04:43:06;101516.53;;;-0.44;100.00
19797;BME280;10058;57.654;12.044;2023-03-03T04:45:32;101532.63;;;-0.48;100.00
19797;BME280;10058;57.654;12.044;2023-03-03T04:47:57;101523.81;;;-0.40;100.00
19797;BME280;10058;57.654;12.044;2023-03-03T04:50:22;101532.34;;;-0.31;100.00
19797;BME280;10058;57.654;12.044;2023-03-03T04:52:48;101526.13;;;-0.33;100.00
19797;BME280;10058;57.654;12.044;2023-03-03T04:55:13;101520.44;;;-0.39;100.00
19797;BME280;10058;57.654;12.044;2023-03-03T04:57:40;101522.25;;;-0.38;100.00
19797;BME280;10058;57.654;12.044;2023-03-03T05:00:06;101505.88;;;-0.47;100.00
19797;BME280;10058;57.654;12.044;2023-03-03T05:02:32;101505.88;;;-0.47;100.00
19797;BME280;10058;57.654;12.044;2023-03-03T05:04:57;101500.97;;;-0.44;100.00
19797;BME280;10058;57.654;12.044;2023-03-03T05:07:22;101504.06;;;-0.48;100.00
19797;BME280;10058;57.654;12.044;2023-03-03T05:09:48;101499.44;;;-0.62;100.00
19797;BME280;10058;57.654;12.044;2023-03-03T05:12:14;101498.13;;;-0.57;100.00
19797;BME280;10058;57.654;12.044;2023-03-03T05:14:39;101488.00;;;-0.54;100.00
19797;BME280;10058;57.654;12.044;2023-03-03T05:17:05;101497.06;;;-0.49;100.00
19797;BME280;10058;57.654;12.044;2023-03-03T05:19:30;101494.22;;;-0.42;100.00
19797;BME280;10058;57.654;12.044;2023-03-03T05:21:56;101481.25;;;-0.52;100.00
19797;BME280;10058;57.654;12.044;2023-03-03T05:24:21;101489.03;;;-0.52;100.00
19797;BME280;10058;57.654;12.044;2023-03-03T05:26:48;101501.25;;;-0.61;100.00
19797;BME280;10058;57.654;12.044;2023-03-03T05:29:13;101496.03;;;-0.51;100.00
19797;BME280;10058;57.654;12.044;2023-03-03T05:31:38;101484.63;;;-0.53;100.00
19797;BME280;10058;57.654;12.044;2023-03-03T05:34:03;101490.88;;;-0.61;100.00
19797;BME280;10058;57.654;12.044;2023-03-03T05:36:29;101492.41;;;-0.63;100.00
19797;BME280;10058;57.654;12.044;2023-03-03T05:38:54;101488.78;;;-0.65;100.00
19797;BME280;10058;57.654;12.044;2023-03-03T05:41:20;101486.06;;;-0.67;100.00
19797;BME280;10058;57.654;12.044;2023-03-03T05:43:45;101495.31;;;-0.71;100.00
19797;BME280;10058;57.654;12.044;2023-03-03T05:46:11;101478.53;;;-0.64;100.00
19797;BME280;10058;57.654;12.044;2023-03-03T05:48:36;101485.81;;;-0.60;100.00
19797;BME280;10058;57.654;12.044;2023-03-03T05:51:02;101477.22;;;-0.69;100.00
19797;BME280;10058;57.654;12.044;2023-03-03T05:53:28;101479.78;;;-0.49;100.00
19797;BME280;10058;57.654;12.044;2023-03-03T05:55:53;101488.50;;;-0.48;100.00
19797;BME280;10058;57.654;12.044;2023-03-03T05:58:19;101478.75;;;-0.51;100.00
19797;BME280;10058;57.654;12.044;2023-03-03T06:00:44;101481.47;;;-0.49;100.00
19797;BME280;10058;57.654;12.044;2023-03-03T06:03:10;101477.38;;;-0.57;100.00
19797;BME280;10058;57.654;12.044;2023-03-03T06:05:35;101473.22;;;-0.65;100.00
19797;BME280;10058;57.654;12.044;2023-03-03T06:08:00;101474.50;;;-0.60;100.00
19797;BME280;10058;57.654;12.044;2023-03-03T06:10:26;101472.66;;;-0.51;100.00
19797;BME280;10058;57.654;12.044;2023-03-03T06:12:51;101474.47;;;-0.50;100.00
19797;BME280;10058;57.654;12.044;2023-03-03T06:15:16;101476.28;;;-0.49;100.00
19797;BME280;10058;57.654;12.044;2023-03-03T06:17:42;101477.63;;;-0.54;100.00
19797;BME280;10058;57.654;12.044;2023-03-03T06:20:08;101492.81;;;-0.69;100.00
19797;BME280;10058;57.654;12.044;2023-03-03T06:22:34;101489.69;;;-0.65;100.00
19797;BME280;10058;57.654;12.044;2023-03-03T06:24:59;101487.63;;;-0.69;100.00
19797;BME280;10058;57.654;12.044;2023-03-03T06:27:24;101488.25;;;-0.51;100.00
19797;BME280;10058;57.654;12.044;2023-03-03T06:29:50;101487.72;;;-0.47;100.00
19797;BME280;10058;57.654;12.044;2023-03-03T06:32:15;101481.19;;;-0.32;100.00
19797;BME280;10058;57.654;12.044;2023-03-03T06:34:40;101483.00;;;-0.31;100.00
19797;BME280;10058;57.654;12.044;2023-03-03T06:37:05;101479.13;;;-0.36;100.00
19797;BME280;10058;57.654;12.044;2023-03-03T06:39:31;101455.84;;;-0.24;100.00
19797;BME280;10058;57.654;12.044;2023-03-03T06:41:56;101466.28;;;-0.03;100.00
19797;BME280;10058;57.654;12.044;2023-03-03T06:44:21;101461.56;;;0.04;100.00
19797;BME280;10058;57.654;12.044;2023-03-03T06:46:46;101455.94;;;0.09;100.00
19797;BME280;10058;57.654;12.044;2023-03-03T06:49:12;101450.81;;;0.21;100.00
19797;BME280;10058;57.654;12.044;2023-03-03T06:51:38;101448.09;;;0.19;100.00
19797;BME280;10058;57.654;12.044;2023-03-03T06:54:15;101446.59;;;0.33;100.00
19797;BME280;10058;57.654;12.044;2023-03-03T06:56:42;101445.00;;;0.35;100.00
19797;BME280;10058;57.654;12.044;2023-03-03T06:59:26;101430.75;;;0.30;100.00
19797;BME280;10058;57.654;12.044;2023-03-03T07:01:52;101450.00;;;0.32;100.00
19797;BME280;10058;57.654;12.044;2023-03-03T07:04:24;101448.84;;;0.50;100.00
19797;BME280;10058;57.654;12.044;2023-03-03T07:06:52;101439.13;;;0.59;100.00
19797;BME280;10058;57.654;12.044;2023-03-03T07:09:24;101444.19;;;0.80;100.00
19797;BME280;10058;57.654;12.044;2023-03-03T07:12:01;101433.91;;;0.81;100.00
19797;BME280;10058;57.654;12.044;2023-03-03T07:14:29;101443.53;;;0.94;100.00
19797;BME280;10058;57.654;12.044;2023-03-03T07:16:58;101454.75;;;1.04;100.00
19797;BME280;10058;57.654;12.044;2023-03-03T07:19:32;101440.75;;;1.14;100.00
19797;BME280;10058;57.654;12.044;2023-03-03T07:21:58;101453.94;;;0.94;100.00
19797;BME280;10058;57.654;12.044;2023-03-03T07:24:29;101437.66;;;1.08;100.00
19797;BME280;10058;57.654;12.044;2023-03-03T07:26:59;101437.78;;;1.21;100.00
19797;BME280;10058;57.654;12.044;2023-03-03T07:29:32;101434.66;;;1.37;100.00
19797;BME280;10058;57.654;12.044;2023-03-03T07:32:00;101442.34;;;1.59;100.00
19797;BME280;10058;57.654;12.044;2023-03-03T07:34:37;101434.88;;;1.75;100.00
19797;BME280;10058;57.654;12.044;2023-03-03T07:39:56;101434.34;;;2.16;100.00
19797;BME280;10058;57.654;12.044;2023-03-03T07:42:37;101432.19;;;2.22;100.00
19797;BME280;10058;57.654;12.044;2023-03-03T07:45:20;101427.53;;;2.18;100.00
19797;BME280;10058;57.654;12.044;2023-03-03T07:47:47;101427.50;;;2.29;100.00
19797;BME280;10058;57.654;12.044;2023-03-03T07:50:15;101424.75;;;2.39;100.00
19797;BME280;10058;57.654;12.044;2023-03-03T07:52:58;101411.31;;;2.58;100.00
19797;BME280;10058;57.654;12.044;2023-03-03T07:55:37;101417.34;;;2.70;100.00
19797;BME280;10058;57.654;12.044;2023-03-03T08:03:14;101397.53;;;2.86;100.00
19797;BME280;10058;57.654;12.044;2023-03-03T08:05:43;101389.22;;;2.91;100.00
19797;BME280;10058;57.654;12.044;2023-03-03T08:13:12;101385.81;;;3.19;100.00
19797;BME280;10058;57.654;12.044;2023-03-03T08:15:40;101379.31;;;3.25;100.00
19797;BME280;10058;57.654;12.044;2023-03-03T08:18:18;101377.88;;;3.30;100.00
19797;BME280;10058;57.654;12.044;2023-03-03T08:20:57;101340.03;;;3.24;100.00
19797;BME280;10058;57.654;12.044;2023-03-03T08:23:22;101364.63;;;3.40;100.00
19797;BME280;10058;57.654;12.044;2023-03-03T08:25:49;101368.34;;;3.31;100.00
19797;BME280;10058;57.654;12.044;2023-03-03T08:28:15;101372.16;;;3.36;100.00
19797;BME280;10058;57.654;12.044;2023-03-03T08:30:40;101354.19;;;3.40;100.00
19797;BME280;10058;57.654;12.044;2023-03-03T08:33:06;101351.78;;;3.43;100.00
19797;BME280;10058;57.654;12.044;2023-03-03T08:35:32;101354.75;;;3.49;100.00
19797;BME280;10058;57.654;12.044;2023-03-03T08:37:57;101359.00;;;3.61;100.00
19797;BME280;10058;57.654;12.044;2023-03-03T08:40:22;101340.75;;;3.89;100.00
19797;BME280;10058;57.654;12.044;2023-03-03T08:42:48;101354.06;;;4.06;100.00
19797;BME280;10058;57.654;12.044;2023-03-03T08:45:14;101350.69;;;3.94;100.00
19797;BME280;10058;57.654;12.044;2023-03-03T08:47:39;101353.53;;;3.71;100.00
19797;BME280;10058;57.654;12.044;2023-03-03T08:50:06;101344.56;;;3.94;100.00
19797;BME280;10058;57.654;12.044;2023-03-03T08:52:31;101345.41;;;4.07;100.00
19797;BME280;10058;57.654;12.044;2023-03-03T08:54:58;101338.97;;;4.02;100.00
19797;BME280;10058;57.654;12.044;2023-03-03T08:57:23;101333.09;;;4.19;100.00
19797;BME280;10058;57.654;12.044;2023-03-03T08:59:49;101333.41;;;4.39;100.00
19797;BME280;10058;57.654;12.044;2023-03-03T09:02:14;101335.59;;;4.46;100.00
19797;BME280;10058;57.654;12.044;2023-03-03T09:04:41;101314.56;;;4.16;100.00
19797;BME280;10058;57.654;12.044;2023-03-03T09:07:06;101324.75;;;4.40;100.00
19797;BME280;10058;57.654;12.044;2023-03-03T09:09:31;101319.81;;;4.59;100.00
19797;BME280;10058;57.654;12.044;2023-03-03T09:11:58;101309.34;;;4.59;100.00
19797;BME280;10058;57.654;12.044;2023-03-03T09:14:28;101299.59;;;4.71;100.00
19797;BME280;10058;57.654;12.044;2023-03-03T09:16:55;101293.44;;;4.85;100.00
19797;BME280;10058;57.654;12.044;2023-03-03T09:19:26;101288.94;;;4.98;100.00
19797;BME280;10058;57.654;12.044;2023-03-03T09:21:54;101293.25;;;5.12;100.00
19797;BME280;10058;57.654;12.044;2023-03-03T09:24:28;101282.06;;;5.14;100.00
19797;BME280;10058;57.654;12.044;2023-03-03T09:26:55;101285.28;;;5.25;100.00
19797;BME280;10058;57.654;12.044;2023-03-03T09:29:28;101295.06;;;5.13;100.00
19797;BME280;10058;57.654;12.044;2023-03-03T09:36:49;101285.28;;;5.25;100.00
19797;BME280;10058;57.654;12.044;2023-03-03T09:39:23;101278.53;;;5.45;100.00
19797;BME280;10058;57.654;12.044;2023-03-03T09:47:49;101261.50;;;6.00;100.00
19797;BME280;10058;57.654;12.044;2023-03-03T09:50:25;101258.72;;;6.13;100.00
19797;BME280;10058;57.654;12.044;2023-03-03T09:55:47;101255.91;;;6.26;100.00
19797;BME280;10058;57.654;12.044;2023-03-03T10:01:32;101251.31;;;6.39;100.00
19797;BME280;10058;57.654;12.044;2023-03-03T10:10:05;101215.91;;;6.48;100.00
19797;BME280;10058;57.654;12.044;2023-03-03T10:13:00;101230.34;;;6.56;100.00
19797;BME280;10058;57.654;12.044;2023-03-03T10:15:53;101216.41;;;6.75;100.00
19797;BME280;10058;57.654;12.044;2023-03-03T10:24:43;101209.66;;;6.80;100.00
19797;BME280;10058;57.654;12.044;2023-03-03T10:32:42;101204.53;;;7.01;100.00
19797;BME280;10058;57.654;12.044;2023-03-03T10:35:38;101208.47;;;6.91;100.00
19797;BME280;10058;57.654;12.044;2023-03-03T10:43:58;101200.34;;;7.05;100.00
19797;BME280;10058;57.654;12.044;2023-03-03T10:46:50;101193.28;;;7.04;100.00
19797;BME280;10058;57.654;12.044;2023-03-03T10:52:00;101183.50;;;7.19;100.00
19797;BME280;10058;57.654;12.044;2023-03-03T10:54:56;101187.00;;;7.37;100.00
19797;BME280;10058;57.654;12.044;2023-03-03T11:05:46;101158.91;;;7.55;100.00
19797;BME280;10058;57.654;12.044;2023-03-03T11:08:20;101159.91;;;7.57;100.00
19797;BME280;10058;57.654;12.044;2023-03-03T11:16:36;101142.84;;;7.68;100.00
19797;BME280;10058;57.654;12.044;2023-03-03T11:22:06;101133.84;;;7.83;100.00
19797;BME280;10058;57.654;12.044;2023-03-03T11:27:54;101121.25;;;7.76;100.00
19797;BME280;10058;57.654;12.044;2023-03-03T11:33:46;101116.56;;;8.09;100.00
19797;BME280;10058;57.654;12.044;2023-03-03T11:36:31;101110.78;;;8.17;100.00
19797;BME280;10058;57.654;12.044;2023-03-03T11:39:02;101103.84;;;8.19;100.00
19797;BME280;10058;57.654;12.044;2023-03-03T11:41:35;101105.34;;;8.33;100.00
19797;BME280;10058;57.654;12.044;2023-03-03T11:44:12;101096.31;;;8.48;100.00
19797;BME280;10058;57.654;12.044;2023-03-03T11:46:51;101087.47;;;8.26;100.00
19797;BME280;10058;57.654;12.044;2023-03-03T11:49:27;101083.56;;;8.37;100.00
19797;BME280;10058;57.654;12.044;2023-03-03T11:55:00;101065.34;;;8.42;100.00
19797;BME280;10058;57.654;12.044;2023-03-03T11:57:32;101056.94;;;8.31;100.00
19797;BME280;10058;57.654;12.044;2023-03-03T12:00:28;101048.31;;;8.34;100.00
19797;BME280;10058;57.654;12.044;2023-03-03T12:05:55;101051.44;;;8.25;100.00
19797;BME280;10058;57.654;12.044;2023-03-03T12:11:24;101031.38;;;8.50;100.00
19797;BME280;10058;57.654;12.044;2023-03-03T12:13:53;101019.59;;;8.40;100.00
19797;BME280;10058;57.654;12.044;2023-03-03T12:18:59;101011.13;;;8.47;100.00
19797;BME280;10058;57.654;12.044;2023-03-03T12:27:05;101002.06;;;8.63;100.00
19797;BME280;10058;57.654;12.044;2023-03-03T12:29:41;100991.59;;;8.64;100.00
19797;BME280;10058;57.654;12.044;2023-03-03T12:38:01;100952.13;;;8.44;100.00
19797;BME280;10058;57.654;12.044;2023-03-03T12:40:33;100940.88;;;8.48;100.00
19797;BME280;10058;57.654;12.044;2023-03-03T12:45:50;100926.13;;;8.53;100.00
19797;BME280;10058;57.654;12.044;2023-03-03T12:48:37;100927.47;;;8.42;100.00
19797;BME280;10058;57.654;12.044;2023-03-03T12:56:39;100904.22;;;8.54;100.00
19797;BME280;10058;57.654;12.044;2023-03-03T13:04:47;100900.13;;;8.17;100.00
19797;BME280;10058;57.654;12.044;2023-03-03T13:12:58;100869.09;;;8.77;100.00
19797;BME280;10058;57.654;12.044;2023-03-03T13:15:29;100867.84;;;8.67;100.00
19797;BME280;10058;57.654;12.044;2023-03-03T13:21:00;100857.44;;;8.47;100.00
19797;BME280;10058;57.654;12.044;2023-03-03T13:23:52;100866.19;;;8.46;100.00
19797;BME280;10058;57.654;12.044;2023-03-03T13:26:36;100870.38;;;8.41;100.00
19797;BME280;10058;57.654;12.044;2023-03-03T13:29:23;100870.09;;;8.57;100.00
19797;BME280;10058;57.654;12.044;2023-03-03T13:31:58;100866.94;;;8.67;100.00
19797;BME280;10058;57.654;12.044;2023-03-03T13:34:43;100859.44;;;8.54;100.00
19797;BME280;10058;57.654;12.044;2023-03-03T13:37:20;100859.03;;;8.67;100.00
19797;BME280;10058;57.654;12.044;2023-03-03T13:39:55;100870.22;;;8.60;100.00
19797;BME280;10058;57.654;12.044;2023-03-03T13:42:31;100875.81;;;8.45;100.00
19797;BME280;10058;57.654;12.044;2023-03-03T13:45:00;100821.53;;;8.26;100.00
19797;BME280;10058;57.654;12.044;2023-03-03T13:47:52;100827.28;;;8.38;100.00
19797;BME280;10058;57.654;12.044;2023-03-03T13:51:18;100823.69;;;8.36;100.00
19797;BME280;10058;57.654;12.044;2023-03-03T13:53:52;100819.44;;;8.40;100.00
19797;BME280;10058;57.654;12.044;2023-03-03T13:56:37;100804.63;;;8.21;100.00
19797;BME280;10058;57.654;12.044;2023-03-03T14:05:02;100761.25;;;8.34;100.00
19797;BME280;10058;57.654;12.044;2023-03-03T14:07:37;100760.34;;;8.33;100.00
19797;BME280;10058;57.654;12.044;2023-03-03T14:10:10;100759.03;;;8.45;100.00
19797;BME280;10058;57.654;12.044;2023-03-03T14:12:46;100760.13;;;8.51;100.00
19797;BME280;10058;57.654;12.044;2023-03-03T14:15:49;100763.50;;;8.47;100.00
19797;BME280;10058;57.654;12.044;2023-03-03T14:18:38;100752.56;;;8.60;100.00
19797;BME280;10058;57.654;12.044;2023-03-03T14:21:13;100756.72;;;8.79;100.00
19797;BME280;10058;57.654;12.044;2023-03-03T14:24:06;100734.84;;;8.82;100.00
19797;BME280;10058;57.654;12.044;2023-03-03T14:26:51;100742.50;;;8.74;100.00
19797;BME280;10058;57.654;12.044;2023-03-03T14:29:34;100729.84;;;8.64;100.00
19797;BME280;10058;57.654;12.044;2023-03-03T14:32:01;100734.47;;;8.71;100.00
19797;BME280;10058;57.654;12.044;2023-03-03T14:34:44;100715.41;;;8.78;100.00
19797;BME280;10058;57.654;12.044;2023-03-03T14:37:27;100703.41;;;8.88;100.00
19797;BME280;10058;57.654;12.044;2023-03-03T14:40:22;100692.09;;;8.90;100.00
19797;BME280;10058;57.654;12.044;2023-03-03T14:42:55;100691.19;;;8.90;100.00
19797;BME280;10058;57.654;12.044;2023-03-03T14:45:39;100698.94;;;8.85;100.00
19797;BME280;10058;57.654;12.044;2023-03-03T14:48:16;100699.97;;;8.63;100.00
19797;BME280;10058;57.654;12.044;2023-03-03T14:50:48;100696.75;;;8.47;100.00
19797;BME280;10058;57.654;12.044;2023-03-03T14:53:18;100684.41;;;8.71;100.00
19797;BME280;10058;57.654;12.044;2023-03-03T14:55:50;100689.78;;;8.74;100.00
19797;BME280;10058;57.654;12.044;2023-03-03T14:58:28;100676.66;;;8.76;100.00
19797;BME280;10058;57.654;12.044;2023-03-03T15:01:08;100668.75;;;8.50;100.00
19797;BME280;10058;57.654;12.044;2023-03-03T15:03:39;100679.56;;;8.32;100.00
19797;BME280;10058;57.654;12.044;2023-03-03T15:06:11;100658.72;;;8.38;100.00
19797;BME280;10058;57.654;12.044;2023-03-03T15:08:39;100646.38;;;8.37;100.00
19797;BME280;10058;57.654;12.044;2023-03-03T15:13:38;100647.44;;;8.43;100.00
19797;BME280;10058;57.654;12.044;2023-03-03T15:16:16;100669.28;;;8.16;100.00
19797;BME280;10058;57.654;12.044;2023-03-03T15:21:28;100678.63;;;8.56;100.00
19797;BME280;10058;57.654;12.044;2023-03-03T15:24:19;100662.31;;;8.41;100.00
19797;BME280;10058;57.654;12.044;2023-03-03T15:29:30;100665.88;;;8.43;100.00